createdAt,value
2022-08-17T00:01:31.441Z,34.17
2022-08-17T00:04:19.300Z,33.97
2022-08-17T00:06:49.238Z,34.58
2022-08-17T00:09:18.373Z,35.38
2022-08-17T00:12:41.239Z,36.03
2022-08-17T00:14:35.908Z,35.83
2022-08-17T00:17:03.800Z,35.78
2022-08-17T00:19:32.433Z,35.72
2022-08-17T00:22:33.039Z,36.00
2022-08-17T00:24:47.142Z,35.95
2022-08-17T00:27:13.664Z,35.53
2022-08-17T00:29:40.464Z,36.80
2022-08-17T00:33:15.410Z,36.17
2022-08-17T00:34:53.812Z,36.17
2022-08-17T00:37:20.339Z,35.05
2022-08-17T00:39:46.916Z,35.90
2022-08-17T00:42:15.273Z,36.83
2022-08-17T00:44:41.768Z,35.50
2022-08-17T00:47:08.358Z,34.88
2022-08-17T00:49:34.886Z,35.30
2022-08-17T00:52:12.612Z,34.15
2022-08-17T00:54:42.569Z,35.20
2022-08-17T00:57:18.327Z,34.67
2022-08-17T01:00:02.283Z,34.47
2022-08-17T01:02:41.465Z,33.72
2022-08-17T01:05:13.646Z,35.13
2022-08-17T01:10:57.103Z,33.72
2022-08-17T01:12:58.069Z,34.13
2022-08-17T01:15:25.171Z,33.17
2022-08-17T01:17:51.754Z,34.35
2022-08-17T01:20:18.401Z,34.38
2022-08-17T01:22:45.139Z,33.22
2022-08-17T01:25:12.756Z,33.80
2022-08-17T01:27:40.464Z,33.03
2022-08-17T01:30:56.672Z,34.05
2022-08-17T01:32:57.217Z,33.67
2022-08-17T01:35:23.975Z,33.88
2022-08-17T01:37:50.589Z,31.42
2022-08-17T01:40:31.113Z,32.58
2022-08-17T01:43:19.905Z,31.37
2022-08-17T01:45:49.146Z,34.08
2022-08-17T01:48:32.952Z,32.47
2022-08-17T01:51:00.302Z,32.20
2022-08-17T01:53:32.834Z,31.85
2022-08-17T01:56:04.549Z,32.03
2022-08-17T01:58:33.496Z,31.40
2022-08-17T02:01:01.472Z,32.75
2022-08-17T02:03:29.754Z,32.80
2022-08-17T02:05:56.456Z,31.67
2022-08-17T02:08:37.240Z,33.72
2022-08-17T02:11:14.532Z,33.25
2022-08-17T02:13:41.742Z,34.03
2022-08-17T02:16:08.311Z,35.80
2022-08-17T02:18:34.839Z,35.03
2022-08-17T02:21:02.049Z,36.08
2022-08-17T02:23:32.179Z,34.75
2022-08-17T02:26:00.559Z,34.83
2022-08-17T02:28:28.428Z,35.67
2022-08-17T02:31:01.081Z,34.95
2022-08-17T02:33:41.923Z,36.95
2022-08-17T02:36:11.362Z,36.15
2022-08-17T02:38:39.349Z,36.47
2022-08-17T02:41:06.073Z,35.30
2022-08-17T02:43:32.730Z,35.85
2022-08-17T02:45:59.948Z,36.33
2022-08-17T02:48:31.303Z,36.53
2022-08-17T02:50:59.718Z,37.92
2022-08-17T02:53:26.666Z,39.28
2022-08-17T02:55:53.405Z,38.90
2022-08-17T02:58:35.114Z,37.58
2022-08-17T03:01:04.109Z,37.83
2022-08-17T03:03:30.628Z,37.88
2022-08-17T03:05:57.339Z,38.08
2022-08-17T03:08:25.356Z,38.22
2022-08-17T03:10:51.878Z,38.45
2022-08-17T03:13:18.382Z,38.67
2022-08-17T03:15:46.284Z,37.92
2022-08-17T03:18:24.071Z,38.05
2022-08-17T03:21:01.566Z,38.25
2022-08-17T03:23:29.663Z,38.47
2022-08-17T03:25:56.413Z,37.92
2022-08-17T03:28:23.370Z,39.50
2022-08-17T03:30:51.078Z,38.58
2022-08-17T03:33:18.856Z,37.22
2022-08-17T03:35:45.392Z,37.85
2022-08-17T03:38:15.095Z,38.45
2022-08-17T03:40:56.487Z,37.78
2022-08-17T03:43:25.197Z,38.55
2022-08-17T03:46:27.004Z,39.03
2022-08-17T03:49:15.635Z,37.35
2022-08-17T03:52:01.105Z,37.10
2022-08-17T03:54:46.038Z,37.28
2022-08-17T03:57:12.810Z,38.00
2022-08-17T03:59:40.585Z,36.55
2022-08-17T04:02:15.516Z,36.20
2022-08-17T04:04:42.056Z,38.10
2022-08-17T04:07:08.700Z,37.17
2022-08-17T04:09:36.402Z,37.38
2022-08-17T04:12:04.720Z,36.47
2022-08-17T04:14:53.401Z,39.83
2022-08-17T04:17:24.056Z,38.17
2022-08-17T04:19:50.591Z,38.20
2022-08-17T04:22:32.508Z,38.58
2022-08-17T04:25:27.274Z,38.50
2022-08-17T04:27:55.081Z,35.28
2022-08-17T04:30:22.522Z,35.65
2022-08-17T04:33:05.951Z,35.58
2022-08-17T04:35:41.100Z,34.53
2022-08-17T04:38:11.926Z,34.28
2022-08-17T04:40:57.062Z,35.30
2022-08-17T04:43:26.405Z,33.58
2022-08-17T04:45:57.339Z,33.00
2022-08-17T04:48:36.651Z,32.25
2022-08-17T04:51:14.557Z,33.10
2022-08-17T04:53:44.300Z,33.15
2022-08-17T04:56:16.880Z,33.53
2022-08-17T04:58:47.893Z,32.83
2022-08-17T05:01:22.923Z,33.08
2022-08-17T05:03:50.163Z,31.05
2022-08-17T05:06:16.680Z,31.75
2022-08-17T05:08:43.180Z,33.28
2022-08-17T05:11:10.096Z,30.80
2022-08-17T05:13:36.606Z,32.00
2022-08-17T05:16:04.511Z,31.63
2022-08-17T05:18:31.232Z,31.08
2022-08-17T05:20:57.852Z,31.45
2022-08-17T05:23:26.617Z,31.33
2022-08-17T05:26:08.358Z,30.20
2022-08-17T05:28:38.168Z,30.45
2022-08-17T05:31:06.762Z,31.25
2022-08-17T05:33:36.789Z,31.15
2022-08-17T05:36:05.817Z,30.77
2022-08-17T05:38:33.181Z,29.60
2022-08-17T05:41:02.131Z,30.00
2022-08-17T05:43:32.773Z,29.25
2022-08-17T05:46:10.449Z,29.25
2022-08-17T05:48:42.397Z,28.45
2022-08-17T05:51:36.548Z,27.75
2022-08-17T05:54:33.229Z,26.25
2022-08-17T05:57:14.892Z,25.30
2022-08-17T06:00:08.811Z,24.85
2022-08-17T06:02:54.755Z,26.25
2022-08-17T06:05:30.507Z,24.38
2022-08-17T06:08:35.864Z,24.40
2022-08-17T06:11:26.239Z,23.77
2022-08-17T06:14:03.216Z,23.13
2022-08-17T06:16:36.155Z,24.00
2022-08-17T06:19:11.487Z,23.27
2022-08-17T06:21:43.100Z,23.83
2022-08-17T06:24:21.994Z,24.13
2022-08-17T06:26:50.222Z,23.45
2022-08-17T06:29:41.253Z,22.90
2022-08-17T06:32:10.399Z,22.30
2022-08-17T06:34:41.127Z,23.90
2022-08-17T06:37:43.270Z,22.77
2022-08-17T06:40:33.788Z,22.92
2022-08-17T06:43:12.763Z,22.98
2022-08-17T06:45:49.183Z,23.75
2022-08-17T06:48:26.615Z,23.60
2022-08-17T06:50:59.873Z,23.35
2022-08-17T06:53:41.965Z,22.63
2022-08-17T06:56:10.525Z,23.55
2022-08-17T06:58:40.129Z,23.98
2022-08-17T07:01:15.260Z,24.63
2022-08-17T07:03:54.630Z,23.27
2022-08-17T07:06:37.071Z,23.60
2022-08-17T07:09:18.822Z,22.00
2022-08-17T07:11:53.907Z,23.20
2022-08-17T07:14:39.412Z,24.02
2022-08-17T07:17:11.096Z,24.08
2022-08-17T07:19:43.969Z,23.55
2022-08-17T07:22:57.755Z,23.52
2022-08-17T07:25:20.925Z,23.20
2022-08-17T07:27:53.568Z,23.58
2022-08-17T07:30:24.652Z,22.70
2022-08-17T07:32:57.266Z,23.17
2022-08-17T07:35:44.876Z,22.90
2022-08-17T07:38:25.891Z,22.85
2022-08-17T07:41:02.390Z,23.70
2022-08-17T07:43:31.097Z,23.05
2022-08-17T07:46:40.080Z,23.77
2022-08-17T07:49:09.207Z,22.95
2022-08-17T07:51:55.320Z,23.90
2022-08-17T07:54:29.443Z,22.98
2022-08-17T07:56:57.351Z,23.92
2022-08-17T07:59:33.822Z,24.67
2022-08-17T08:02:03.596Z,24.42
2022-08-17T08:07:31.805Z,23.85
2022-08-17T08:10:12.232Z,24.20
2022-08-17T08:12:47.857Z,24.52
2022-08-17T08:15:22.167Z,25.17
2022-08-17T08:18:02.916Z,25.63
2022-08-17T08:20:53.894Z,26.38
2022-08-17T08:23:39.451Z,26.52
2022-08-17T08:26:26.392Z,26.60
2022-08-17T08:29:22.415Z,26.25
2022-08-17T08:32:05.504Z,26.42
2022-08-17T08:34:53.184Z,28.60
2022-08-17T08:37:43.100Z,26.85
2022-08-17T08:40:43.962Z,28.67
2022-08-17T08:43:28.729Z,27.95
2022-08-17T08:46:05.850Z,28.30
2022-08-17T08:49:06.460Z,27.90
2022-08-17T08:51:56.046Z,27.92
2022-08-17T08:54:35.674Z,26.83
2022-08-17T08:57:26.798Z,26.95
2022-08-17T09:00:17.149Z,28.30
2022-08-17T09:03:06.124Z,28.70
2022-08-17T09:05:48.511Z,27.75
2022-08-17T09:08:38.805Z,30.98
2022-08-17T09:11:22.341Z,29.13
2022-08-17T09:14:21.641Z,28.88
2022-08-17T09:17:05.395Z,29.80
2022-08-17T09:19:56.186Z,30.35
2022-08-17T09:22:43.171Z,29.10
2022-08-17T09:25:26.215Z,31.05
2022-08-17T09:28:03.820Z,30.27
2022-08-17T09:30:45.448Z,30.33
2022-08-17T09:33:17.563Z,30.38
2022-08-17T09:35:59.911Z,30.10
2022-08-17T09:38:41.607Z,29.58
2022-08-17T09:41:23.715Z,29.23
2022-08-17T09:44:02.370Z,29.75
2022-08-17T09:46:34.458Z,29.65
2022-08-17T09:49:16.065Z,30.90
2022-08-17T09:51:52.175Z,29.67
2022-08-17T09:54:44.840Z,30.90
2022-08-17T09:57:30.213Z,31.08
2022-08-17T10:00:18.799Z,30.92
2022-08-17T10:02:54.430Z,30.50
2022-08-17T10:05:56.880Z,30.30
2022-08-17T10:08:35.013Z,30.90
2022-08-17T10:11:46.309Z,32.05
2022-08-17T10:15:08.237Z,32.08
2022-08-17T10:17:56.204Z,33.20
2022-08-17T10:20:28.168Z,33.40
2022-08-17T10:23:27.256Z,33.63
2022-08-17T10:26:14.645Z,33.67
2022-08-17T10:28:51.248Z,33.58
2022-08-17T10:31:40.069Z,33.90
2022-08-17T10:34:49.052Z,34.28
2022-08-17T10:37:25.101Z,33.78
2022-08-17T10:40:18.987Z,34.00
2022-08-17T10:42:51.648Z,33.30
2022-08-17T10:45:30.911Z,33.38
2022-08-17T10:48:05.627Z,33.42
2022-08-17T10:50:52.927Z,34.28
2022-08-17T10:53:31.788Z,34.72
2022-08-17T10:56:13.622Z,35.97
2022-08-17T10:58:57.100Z,36.72
2022-08-17T11:01:32.927Z,38.55
2022-08-17T11:04:25.665Z,36.72
2022-08-17T11:07:22.926Z,36.58
2022-08-17T11:10:29.866Z,37.20
2022-08-17T11:13:11.415Z,37.20
2022-08-17T11:19:09.875Z,36.47
2022-08-17T11:22:07.594Z,37.47
2022-08-17T11:24:37.322Z,36.83
2022-08-17T11:27:03.777Z,38.95
2022-08-17T11:29:50.645Z,37.65
2022-08-17T11:33:00.262Z,36.97
2022-08-17T11:35:44.580Z,37.00
2022-08-17T11:38:29.398Z,37.80
2022-08-17T11:41:17.682Z,36.88
2022-08-17T11:44:07.619Z,37.10
2022-08-17T11:47:14.247Z,36.90
2022-08-17T11:50:36.983Z,36.95
2022-08-17T11:53:04.448Z,36.22
2022-08-17T11:55:38.218Z,36.35
2022-08-17T11:58:51.839Z,35.10
2022-08-17T12:01:26.698Z,34.95
2022-08-17T12:04:14.710Z,33.40
2022-08-17T12:06:50.183Z,35.00
2022-08-17T12:09:26.348Z,34.75
2022-08-17T12:12:13.351Z,34.45
2022-08-17T12:17:40.793Z,34.35
2022-08-17T12:20:35.160Z,34.38
2022-08-17T12:23:12.354Z,34.25
2022-08-17T12:25:49.306Z,35.10
2022-08-17T12:28:26.914Z,34.22
2022-08-17T12:30:56.101Z,33.80
2022-08-17T12:33:28.475Z,34.47
2022-08-17T12:36:03.179Z,34.00
2022-08-17T12:38:34.567Z,34.15
2022-08-17T12:44:03.605Z,34.95
2022-08-17T12:46:46.330Z,34.55
2022-08-17T12:49:15.227Z,33.63
2022-08-17T12:51:46.497Z,34.13
2022-08-17T12:54:47.956Z,34.78
2022-08-17T12:57:25.568Z,32.85
2022-08-17T12:59:58.472Z,31.80
2022-08-17T13:02:29.908Z,31.05
2022-08-17T13:07:35.192Z,32.13
2022-08-17T13:10:02.436Z,31.98
2022-08-17T13:12:34.938Z,30.27
2022-08-17T13:15:02.208Z,31.63
2022-08-17T13:17:34.660Z,29.85
2022-08-17T13:20:03.243Z,30.65
2022-08-17T13:22:32.357Z,30.63
2022-08-17T13:25:08.365Z,31.88
2022-08-17T13:27:35.102Z,31.00
2022-08-17T13:30:07.067Z,31.02
2022-08-17T13:32:43.849Z,31.40
2022-08-17T13:35:29.535Z,31.83
2022-08-17T13:38:04.873Z,32.10
2022-08-17T13:40:37.503Z,31.00
2022-08-17T13:43:04.323Z,29.92
2022-08-17T13:45:35.695Z,30.17
2022-08-17T13:48:28.201Z,31.63
2022-08-17T13:50:54.645Z,32.00
2022-08-17T13:53:31.340Z,31.25
2022-08-17T13:56:02.308Z,31.45
2022-08-17T13:58:57.850Z,30.63
2022-08-17T14:01:35.516Z,30.83
2022-08-17T14:04:12.364Z,30.40
2022-08-17T14:06:52.953Z,31.17
2022-08-17T14:09:23.976Z,31.30
2022-08-17T14:11:51.412Z,31.10
2022-08-17T14:14:18.229Z,30.83
2022-08-17T14:16:44.964Z,31.98
2022-08-17T14:19:13.055Z,31.65
2022-08-17T14:21:40.700Z,31.70
2022-08-17T14:24:10.963Z,32.22
2022-08-17T14:26:37.526Z,33.25
2022-08-17T14:29:04.184Z,33.35
2022-08-17T14:31:41.539Z,33.08
2022-08-17T14:34:10.641Z,32.78
2022-08-17T14:36:38.309Z,31.92
2022-08-17T14:39:13.961Z,32.17
2022-08-17T14:41:41.934Z,32.78
2022-08-17T14:44:12.380Z,33.60
2022-08-17T14:46:43.960Z,33.80
2022-08-17T14:49:12.388Z,34.05
2022-08-17T14:51:44.003Z,33.45
2022-08-17T14:54:33.461Z,34.17
2022-08-17T14:57:23.683Z,34.13
2022-08-17T14:59:46.634Z,34.70
2022-08-17T15:02:13.193Z,33.85
2022-08-17T15:04:45.429Z,34.83
2022-08-17T15:07:12.206Z,34.88
2022-08-17T15:09:38.968Z,35.03
2022-08-17T15:12:08.764Z,35.70
2022-08-17T15:14:36.173Z,35.97
2022-08-17T15:17:03.613Z,36.45
2022-08-17T15:19:30.284Z,36.35
2022-08-17T15:21:56.882Z,35.90
2022-08-17T15:24:23.366Z,35.85
2022-08-17T15:26:49.936Z,37.80
2022-08-17T15:29:16.479Z,36.80
2022-08-17T15:31:43.137Z,37.00
2022-08-17T15:34:09.674Z,36.78
2022-08-17T15:36:36.242Z,35.92
2022-08-17T15:39:03.527Z,36.30
2022-08-17T15:41:31.155Z,36.17
2022-08-17T15:43:57.668Z,37.47
2022-08-17T15:46:25.616Z,37.25
2022-08-17T15:48:58.025Z,37.58
2022-08-17T15:51:30.386Z,35.75
2022-08-17T15:54:04.513Z,36.63
2022-08-17T15:56:46.032Z,38.05
2022-08-17T15:59:12.527Z,37.42
2022-08-17T16:03:14.978Z,37.42
2022-08-17T16:04:29.568Z,37.20
2022-08-17T16:06:58.634Z,38.30
2022-08-17T16:09:25.128Z,39.67
2022-08-17T16:11:52.084Z,39.85
2022-08-17T16:14:22.297Z,39.85
2022-08-17T16:16:49.680Z,39.38
2022-08-17T16:19:16.311Z,38.78
2022-08-17T16:21:43.403Z,38.97
2022-08-17T16:24:13.416Z,39.47
2022-08-17T16:29:09.058Z,37.85
2022-08-17T16:31:37.501Z,38.83
2022-08-17T16:34:17.284Z,37.90
2022-08-17T16:36:53.703Z,37.88
2022-08-17T16:39:28.965Z,37.47
2022-08-17T16:41:56.560Z,37.35
2022-08-17T16:44:23.049Z,36.58
2022-08-17T16:46:50.134Z,36.65
2022-08-17T16:49:35.063Z,38.67
2022-08-17T16:52:06.152Z,36.25
2022-08-17T16:54:33.375Z,37.30
2022-08-17T16:57:00.176Z,37.35
2022-08-17T16:59:31.041Z,37.35
2022-08-17T17:02:10.775Z,37.28
2022-08-17T17:04:49.879Z,37.50
2022-08-17T17:07:43.674Z,38.72
2022-08-17T17:10:15.161Z,38.47
2022-08-17T17:15:40.289Z,38.58
2022-08-17T17:18:13.348Z,38.88
2022-08-17T17:20:52.074Z,38.15
2022-08-17T17:23:37.176Z,37.50
2022-08-17T17:26:35.353Z,37.22
2022-08-17T17:29:12.212Z,38.58
2022-08-17T17:31:54.801Z,37.33
2022-08-17T17:34:22.609Z,38.30
2022-08-17T17:37:01.424Z,39.53
2022-08-17T17:39:48.898Z,38.40
2022-08-17T17:42:20.489Z,38.40
2022-08-17T17:47:16.089Z,38.55
2022-08-17T17:49:44.984Z,40.28
2022-08-17T17:52:37.267Z,40.10
2022-08-17T17:55:21.916Z,39.90
2022-08-17T17:58:26.193Z,39.80
2022-08-17T18:01:16.246Z,39.63
2022-08-17T18:04:00.626Z,41.10
2022-08-17T18:06:55.514Z,41.13
2022-08-17T18:09:54.233Z,40.83
2022-08-17T18:12:43.357Z,41.60
2022-08-17T18:15:30.288Z,40.38
2022-08-17T18:18:31.035Z,42.40
2022-08-17T18:21:06.946Z,40.13
2022-08-17T18:23:34.131Z,40.53
2022-08-17T18:26:01.966Z,40.70
2022-08-17T18:28:41.037Z,41.25
2022-08-17T18:31:10.508Z,38.65
2022-08-17T18:33:40.753Z,39.60
2022-08-17T18:36:07.969Z,39.17
2022-08-17T18:38:35.982Z,38.50
2022-08-17T18:41:19.105Z,37.30
2022-08-17T18:44:04.437Z,38.35
2022-08-17T18:46:35.844Z,38.47
2022-08-17T18:52:15.645Z,38.85
2022-08-17T18:55:19.758Z,38.15
2022-08-17T18:57:53.153Z,37.63
2022-08-17T19:00:40.193Z,38.45
2022-08-17T19:03:15.925Z,39.33
2022-08-17T19:05:45.928Z,40.67
2022-08-17T19:08:23.022Z,39.42
2022-08-17T19:10:55.480Z,38.97
2022-08-17T19:13:28.862Z,38.20
2022-08-17T19:16:12.049Z,39.50
2022-08-17T19:18:58.140Z,38.08
2022-08-17T19:21:37.086Z,38.20
2022-08-17T19:24:11.292Z,39.03
2022-08-17T19:26:54.854Z,39.35
2022-08-17T19:29:31.075Z,38.63
2022-08-17T19:31:58.660Z,39.42
2022-08-17T19:34:33.375Z,38.70
2022-08-17T19:37:07.395Z,39.53
2022-08-17T19:40:09.371Z,39.55
2022-08-17T19:42:57.262Z,40.35
2022-08-17T19:45:45.639Z,38.97
2022-08-17T19:48:38.473Z,39.58
2022-08-17T19:51:15.401Z,39.35
2022-08-17T19:54:06.352Z,40.40
2022-08-17T19:56:42.390Z,39.45
2022-08-17T19:59:15.565Z,40.95
2022-08-17T20:01:50.022Z,40.00
2022-08-17T20:04:31.787Z,40.75
2022-08-17T20:07:19.883Z,40.95
2022-08-17T20:10:04.449Z,41.67
2022-08-17T20:12:35.171Z,40.40
2022-08-17T20:15:09.476Z,41.28
2022-08-17T20:17:39.191Z,41.13
2022-08-17T20:20:30.703Z,42.00
2022-08-17T20:23:11.020Z,40.65
2022-08-17T20:25:47.669Z,40.60
2022-08-17T20:28:22.644Z,41.25
2022-08-17T20:30:50.673Z,42.22
2022-08-17T20:33:36.603Z,42.47
2022-08-17T20:36:19.520Z,42.55
2022-08-17T20:38:54.587Z,41.13
2022-08-17T20:41:23.876Z,41.30
2022-08-17T20:43:56.081Z,41.65
2022-08-17T20:46:38.038Z,41.67
2022-08-17T20:49:44.587Z,42.03
2022-08-17T20:52:15.490Z,42.35
2022-08-17T20:54:52.861Z,41.17
2022-08-17T20:57:34.353Z,42.88
2022-08-17T21:00:15.527Z,41.10
2022-08-17T21:02:49.441Z,42.33
2022-08-17T21:05:34.550Z,42.03
2022-08-17T21:08:18.318Z,42.33
2022-08-17T21:10:46.869Z,42.80
2022-08-17T21:13:15.308Z,42.45
2022-08-17T21:15:42.269Z,41.88
2022-08-17T21:18:20.344Z,42.50
2022-08-17T21:21:06.585Z,42.45
2022-08-17T21:24:12.746Z,42.22
2022-08-17T21:26:50.483Z,43.55
2022-08-17T21:29:32.562Z,43.22
2022-08-17T21:32:03.607Z,44.20
2022-08-17T21:34:37.124Z,43.20
2022-08-17T21:37:18.768Z,42.85
2022-08-17T21:39:54.139Z,44.78
2022-08-17T21:42:31.634Z,44.00
2022-08-17T21:45:09.040Z,44.13
2022-08-17T21:47:36.231Z,43.17
2022-08-17T21:50:23.838Z,43.38
2022-08-17T21:52:53.951Z,45.10
2022-08-17T21:55:29.428Z,42.10
2022-08-17T21:58:14.376Z,43.60
2022-08-17T22:00:44.348Z,43.85
2022-08-17T22:03:24.614Z,40.88
2022-08-17T22:05:51.348Z,42.95
2022-08-17T22:08:23.616Z,42.83
2022-08-17T22:10:51.429Z,42.78
2022-08-17T22:13:18.019Z,43.40
2022-08-17T22:15:49.820Z,43.88
2022-08-17T22:18:28.654Z,43.70
2022-08-17T22:20:57.046Z,43.15
2022-08-17T22:23:53.135Z,43.08
2022-08-17T22:26:22.488Z,42.58
2022-08-17T22:28:52.704Z,44.00
2022-08-17T22:31:30.408Z,42.83
2022-08-17T22:34:02.515Z,43.67
2022-08-17T22:36:29.918Z,42.00
2022-08-17T22:39:00.349Z,43.40
2022-08-17T22:42:00.252Z,43.00
2022-08-17T22:44:31.928Z,43.25
2022-08-17T22:47:01.112Z,42.78
2022-08-17T22:49:33.373Z,42.35
2022-08-17T22:52:02.610Z,42.67
2022-08-17T22:54:48.428Z,41.40
2022-08-17T22:57:34.384Z,42.13
2022-08-17T23:00:01.249Z,40.90
2022-08-17T23:02:33.731Z,41.90
2022-08-17T23:05:21.258Z,41.38
2022-08-17T23:07:52.208Z,41.05
2022-08-17T23:10:18.876Z,41.47
2022-08-17T23:12:46.048Z,41.13
2022-08-17T23:15:18.096Z,41.38
2022-08-17T23:17:45.401Z,40.90
2022-08-17T23:20:13.631Z,41.47
2022-08-17T23:22:52.131Z,39.67
2022-08-17T23:25:27.794Z,40.78
2022-08-17T23:27:54.738Z,39.00
2022-08-17T23:30:24.829Z,40.45
2022-08-17T23:32:53.341Z,40.17
2022-08-17T23:35:39.212Z,41.78
2022-08-17T23:38:08.600Z,40.67
2022-08-17T23:40:35.178Z,41.08
2022-08-17T23:43:04.494Z,40.80
2022-08-17T23:45:32.528Z,39.92
2022-08-17T23:48:00.251Z,40.13
2022-08-17T23:50:29.896Z,39.08
2022-08-17T23:52:57.734Z,40.45
2022-08-17T23:55:24.353Z,39.15
2022-08-17T23:57:51.127Z,39.03
